createdAt,value
2022-12-15T00:02:17.397Z,-3.61
2022-12-15T00:05:02.753Z,-3.59
2022-12-15T00:07:48.111Z,-3.49
2022-12-15T00:10:33.594Z,-3.53
2022-12-15T00:13:19.189Z,-3.36
2022-12-15T00:16:06.128Z,-3.76
2022-12-15T00:18:52.146Z,-3.39
2022-12-15T00:21:37.629Z,-3.35
2022-12-15T00:24:22.979Z,-3.42
2022-12-15T00:27:08.789Z,-3.36
2022-12-15T00:29:54.162Z,-3.82
2022-12-15T00:32:40.940Z,-3.30
2022-12-15T00:35:27.753Z,-3.98
2022-12-15T00:38:13.276Z,-4.15
2022-12-15T00:40:40.381Z,-4.18
2022-12-15T00:43:12.326Z,-4.07
2022-12-15T00:45:58.328Z,-4.67
2022-12-15T00:48:25.289Z,-3.64
2022-12-15T00:50:54.998Z,-4.19
2022-12-15T00:53:42.524Z,-4.82
2022-12-15T00:56:29.102Z,-3.51
2022-12-15T00:59:15.650Z,-4.32
2022-12-15T01:02:01.773Z,-4.21
2022-12-15T01:04:47.413Z,-4.66
2022-12-15T01:07:33.621Z,-4.59
2022-12-15T01:10:19.776Z,-4.44
2022-12-15T01:13:06.453Z,-4.35
2022-12-15T01:15:54.640Z,-4.63
2022-12-15T01:18:41.214Z,-5.01
2022-12-15T01:21:13.343Z,-4.49
2022-12-15T01:23:41.373Z,-4.20
2022-12-15T01:26:08.933Z,-4.66
2022-12-15T01:28:36.219Z,-4.40
2022-12-15T01:31:09.763Z,-4.40
2022-12-15T01:33:36.501Z,-4.79
2022-12-15T01:36:05.931Z,-3.97
2022-12-15T01:38:32.879Z,-3.96
2022-12-15T01:41:03.337Z,-3.61
2022-12-15T01:43:34.155Z,-4.77
2022-12-15T01:46:01.419Z,-3.62
2022-12-15T01:48:54.223Z,-3.63
2022-12-15T01:51:33.064Z,-4.92
2022-12-15T01:54:21.653Z,-4.03
2022-12-15T01:56:54.685Z,-3.67
2022-12-15T01:59:28.881Z,-4.31
2022-12-15T02:01:55.904Z,-3.63
2022-12-15T02:04:23.983Z,-4.34
2022-12-15T02:06:50.934Z,-3.96
2022-12-15T02:09:19.601Z,-4.77
2022-12-15T02:12:13.263Z,-3.62
2022-12-15T02:14:56.998Z,-3.69
2022-12-15T02:18:13.296Z,-4.74
2022-12-15T02:20:43.164Z,-3.71
2022-12-15T02:23:47.357Z,-3.47
2022-12-15T02:26:51.748Z,-3.68
2022-12-15T02:29:47.438Z,-3.88
2022-12-15T02:32:30.191Z,-4.10
2022-12-15T02:35:06.838Z,-3.67
2022-12-15T02:37:37.722Z,-4.84
2022-12-15T02:40:07.107Z,-4.18
2022-12-15T02:42:39.146Z,-4.81
2022-12-15T02:45:13.707Z,-4.02
2022-12-15T02:48:02.979Z,-3.56
2022-12-15T02:50:32.767Z,-3.60
2022-12-15T02:53:15.113Z,-3.81
2022-12-15T02:55:52.289Z,-4.30
2022-12-15T02:58:45.020Z,-4.35
2022-12-15T03:01:34.836Z,-4.23
2022-12-15T03:04:04.887Z,-4.16
2022-12-15T03:06:31.714Z,-3.58
2022-12-15T03:08:58.783Z,-3.89
2022-12-15T03:11:26.249Z,-3.99
2022-12-15T03:13:54.379Z,-4.37
2022-12-15T03:16:21.767Z,-4.12
2022-12-15T03:18:48.729Z,-4.51
2022-12-15T03:21:15.805Z,-4.31
2022-12-15T03:23:42.735Z,-4.19
2022-12-15T03:26:09.584Z,-4.42
2022-12-15T03:28:36.503Z,-4.85
2022-12-15T03:31:03.763Z,-3.55
2022-12-15T03:33:32.791Z,-4.63
2022-12-15T03:36:00.240Z,-3.81
2022-12-15T03:38:27.778Z,-3.59
2022-12-15T03:40:54.992Z,-4.15
2022-12-15T03:43:22.387Z,-4.06
2022-12-15T03:45:49.680Z,-4.08
2022-12-15T03:48:16.738Z,-3.77
2022-12-15T03:50:44.859Z,-3.46
2022-12-15T03:53:11.957Z,-4.31
2022-12-15T03:55:39.287Z,-3.61
2022-12-15T03:58:06.196Z,-4.10
2022-12-15T04:00:33.765Z,-4.88
2022-12-15T04:03:00.999Z,-4.72
2022-12-15T04:05:33.890Z,-4.28
2022-12-15T04:08:02.059Z,-4.80
2022-12-15T04:10:34.796Z,-4.78
2022-12-15T04:13:07.939Z,-5.26
2022-12-15T04:15:36.494Z,-3.71
2022-12-15T04:18:05.802Z,-3.66
2022-12-15T04:20:33.381Z,-4.60
2022-12-15T04:23:00.655Z,-4.31
2022-12-15T04:25:46.417Z,-4.23
2022-12-15T04:28:33.041Z,-4.20
2022-12-15T04:31:26.255Z,-3.73
2022-12-15T04:34:14.603Z,-3.64
2022-12-15T04:37:02.672Z,-3.69
2022-12-15T04:39:48.281Z,-3.73
2022-12-15T04:42:35.089Z,-4.84
2022-12-15T04:45:23.281Z,-4.38
2022-12-15T04:48:08.898Z,-3.60
2022-12-15T04:50:54.407Z,-3.73
2022-12-15T04:53:40.268Z,-4.47
2022-12-15T04:56:31.104Z,-3.66
2022-12-15T04:59:17.299Z,-3.99
2022-12-15T05:02:02.724Z,-4.21
2022-12-15T05:04:48.508Z,-5.13
2022-12-15T05:07:34.547Z,-4.61
2022-12-15T05:10:20.335Z,-5.16
2022-12-15T05:13:05.951Z,-4.34
2022-12-15T05:15:52.181Z,-4.36
2022-12-15T05:18:38.112Z,-4.51
2022-12-15T05:21:23.777Z,-3.89
2022-12-15T05:24:09.363Z,-3.89
2022-12-15T05:26:54.859Z,-4.54
2022-12-15T05:29:40.858Z,-4.76
2022-12-15T05:32:08.851Z,-4.99
2022-12-15T05:34:37.460Z,-4.48
2022-12-15T05:37:06.428Z,-4.58
2022-12-15T05:39:33.661Z,-4.51
2022-12-15T05:42:00.680Z,-4.05
2022-12-15T05:44:28.613Z,-4.18
2022-12-15T05:46:55.497Z,-4.54
2022-12-15T05:49:23.557Z,-4.08
2022-12-15T05:51:50.742Z,-4.78
2022-12-15T05:54:19.843Z,-4.56
2022-12-15T05:56:50.076Z,-4.30
2022-12-15T05:59:19.401Z,-4.43
2022-12-15T06:01:46.911Z,-4.29
2022-12-15T06:04:14.743Z,-4.58
2022-12-15T06:06:42.327Z,-4.40
2022-12-15T06:09:09.825Z,-4.34
2022-12-15T06:11:37.728Z,-5.03
2022-12-15T06:14:04.924Z,-4.47
2022-12-15T06:16:32.166Z,-4.40
2022-12-15T06:19:01.745Z,-4.39
2022-12-15T06:21:37.477Z,-4.71
2022-12-15T06:24:05.523Z,-4.69
2022-12-15T06:26:37.849Z,-4.85
2022-12-15T06:29:08.866Z,-4.84
2022-12-15T06:31:36.884Z,-4.76
2022-12-15T06:34:11.104Z,-4.58
2022-12-15T06:36:39.202Z,-4.53
2022-12-15T06:39:10.653Z,-4.40
2022-12-15T06:41:38.206Z,-4.76
2022-12-15T06:44:05.676Z,-5.24
2022-12-15T06:46:33.932Z,-4.64
2022-12-15T06:49:01.017Z,-5.18
2022-12-15T06:51:29.011Z,-4.88
2022-12-15T06:53:58.560Z,-3.87
2022-12-15T06:56:42.619Z,-4.16
2022-12-15T06:59:11.697Z,-3.74
2022-12-15T07:01:39.038Z,-4.83
2022-12-15T07:04:06.663Z,-3.78
2022-12-15T07:06:38.321Z,-4.38
2022-12-15T07:09:13.492Z,-5.14
2022-12-15T07:11:40.741Z,-5.13
2022-12-15T07:14:07.805Z,-5.77
2022-12-15T07:16:34.966Z,-4.13
2022-12-15T07:19:02.111Z,-5.46
2022-12-15T07:21:29.261Z,-4.62
2022-12-15T07:23:57.845Z,-4.91
2022-12-15T07:26:25.997Z,-4.88
2022-12-15T07:28:54.231Z,-4.27
2022-12-15T07:31:22.277Z,-5.32
2022-12-15T07:33:49.532Z,-4.60
2022-12-15T07:36:17.127Z,-4.53
2022-12-15T07:38:50.685Z,-5.24
2022-12-15T07:41:18.964Z,-5.26
2022-12-15T07:43:47.247Z,-5.12
2022-12-15T07:46:14.322Z,-4.99
2022-12-15T07:48:41.625Z,-5.34
2022-12-15T07:51:17.109Z,-4.27
2022-12-15T07:53:50.548Z,-5.38
2022-12-15T07:56:18.849Z,-5.45
2022-12-15T07:58:45.885Z,-5.01
2022-12-15T08:01:14.360Z,-5.13
2022-12-15T08:03:42.065Z,-5.69
2022-12-15T08:06:12.607Z,-4.31
2022-12-15T08:08:40.576Z,-5.41
2022-12-15T08:11:12.663Z,-5.02
2022-12-15T08:16:29.434Z,-4.80
2022-12-15T08:18:59.622Z,-4.24
2022-12-15T08:21:26.680Z,-5.01
2022-12-15T08:23:54.138Z,-5.21
2022-12-15T08:26:25.181Z,-5.37
2022-12-15T08:29:17.544Z,-4.85
2022-12-15T08:31:46.827Z,-4.75
2022-12-15T08:34:13.852Z,-5.03
2022-12-15T08:36:40.772Z,-5.32
2022-12-15T08:39:07.741Z,-4.60
2022-12-15T08:41:34.869Z,-4.57
2022-12-15T08:44:02.670Z,-4.04
2022-12-15T08:46:34.193Z,-4.45
2022-12-15T08:49:02.748Z,-5.03
2022-12-15T08:51:32.308Z,-4.67
2022-12-15T08:54:00.724Z,-3.92
2022-12-15T08:56:29.451Z,-3.68
2022-12-15T08:59:01.854Z,-4.47
2022-12-15T09:01:31.930Z,-3.94
2022-12-15T09:04:00.065Z,-3.39
2022-12-15T09:06:32.699Z,-3.55
2022-12-15T09:09:02.479Z,-3.80
2022-12-15T09:11:30.903Z,-3.20
2022-12-15T09:13:58.888Z,-4.13
2022-12-15T09:16:26.078Z,-3.78
2022-12-15T09:18:55.702Z,-3.26
2022-12-15T09:21:26.860Z,-4.55
2022-12-15T09:23:57.885Z,-2.83
2022-12-15T09:26:24.877Z,-4.18
2022-12-15T09:28:57.416Z,-4.51
2022-12-15T09:31:28.759Z,-4.14
2022-12-15T09:33:58.426Z,-3.19
2022-12-15T09:36:26.093Z,-3.27
2022-12-15T09:38:53.560Z,-4.66
2022-12-15T09:41:22.587Z,-3.31
2022-12-15T09:43:58.699Z,-4.53
2022-12-15T09:46:50.737Z,-2.89
2022-12-15T09:49:45.529Z,-2.64
2022-12-15T09:52:16.256Z,-3.29
2022-12-15T09:54:44.498Z,-3.61
2022-12-15T09:57:20.616Z,-3.34
2022-12-15T10:00:21.438Z,-3.67
2022-12-15T10:02:51.474Z,-2.85
2022-12-15T10:06:06.109Z,-3.42
2022-12-15T10:08:31.261Z,-3.43
2022-12-15T10:11:02.047Z,-3.18
2022-12-15T10:13:37.616Z,-2.74
2022-12-15T10:16:26.851Z,-3.02
2022-12-15T10:19:03.364Z,-3.01
2022-12-15T10:21:32.397Z,-3.23
2022-12-15T10:24:37.458Z,-3.44
2022-12-15T10:27:41.869Z,-3.36
2022-12-15T10:30:14.139Z,-3.29
2022-12-15T10:32:59.486Z,-3.50
2022-12-15T10:35:30.827Z,-3.50
2022-12-15T10:38:03.821Z,-2.99
2022-12-15T10:40:50.717Z,-3.67
2022-12-15T10:43:25.359Z,-3.31
2022-12-15T10:46:24.216Z,-3.31
2022-12-15T10:49:07.545Z,-2.86
2022-12-15T10:51:42.925Z,-2.90
2022-12-15T10:54:15.656Z,-2.77
2022-12-15T10:56:59.924Z,-2.66
2022-12-15T10:59:38.277Z,-2.74
2022-12-15T11:02:43.309Z,-2.33
2022-12-15T11:05:15.891Z,-2.48
2022-12-15T11:07:45.747Z,-2.41
2022-12-15T11:10:23.647Z,-2.56
2022-12-15T11:13:20.383Z,-3.39
2022-12-15T11:15:50.710Z,-3.31
2022-12-15T11:18:30.956Z,-3.64
2022-12-15T11:21:22.599Z,-3.85
2022-12-15T11:23:59.755Z,-3.76
2022-12-15T11:26:53.188Z,-4.27
2022-12-15T11:29:34.592Z,-4.11
2022-12-15T11:32:06.631Z,-4.31
2022-12-15T11:34:39.146Z,-4.33
2022-12-15T11:37:18.028Z,-3.99
2022-12-15T11:40:00.605Z,-4.46
2022-12-15T11:42:52.072Z,-4.17
2022-12-15T11:45:22.676Z,-4.40
2022-12-15T11:47:52.356Z,-4.43
2022-12-15T11:50:39.757Z,-4.81
2022-12-15T11:53:34.844Z,-4.60
2022-12-15T11:56:28.366Z,-4.62
2022-12-15T11:59:07.359Z,-4.81
2022-12-15T12:01:53.967Z,-4.28
2022-12-15T12:04:43.155Z,-3.93
2022-12-15T12:07:30.876Z,-4.61
2022-12-15T12:10:13.175Z,-3.94
2022-12-15T12:12:50.710Z,-3.77
2022-12-15T12:15:36.784Z,-4.42
2022-12-15T12:18:18.297Z,-4.54
2022-12-15T12:21:00.247Z,-4.63
2022-12-15T12:23:45.394Z,-5.00
2022-12-15T12:26:35.403Z,-4.81
2022-12-15T12:29:11.836Z,-5.02
2022-12-15T12:31:50.710Z,-4.68
2022-12-15T12:37:54.886Z,-4.77
2022-12-15T12:40:35.717Z,-4.69
2022-12-15T12:43:05.268Z,-4.67
2022-12-15T12:45:37.081Z,-4.15
2022-12-15T12:48:38.105Z,-4.99
2022-12-15T12:51:28.908Z,-4.58
2022-12-15T12:53:57.265Z,-4.97
2022-12-15T12:56:43.456Z,-4.43
2022-12-15T12:59:28.476Z,-4.22
2022-12-15T13:01:57.084Z,-4.30
2022-12-15T13:04:30.137Z,-4.07
2022-12-15T13:07:25.105Z,-4.62
2022-12-15T13:10:13.570Z,-4.58
2022-12-15T13:12:54.983Z,-4.50
2022-12-15T13:15:27.881Z,-4.38
2022-12-15T13:18:19.927Z,-4.10
2022-12-15T13:20:50.705Z,-3.83
2022-12-15T13:23:20.286Z,-4.10
2022-12-15T13:26:07.155Z,-3.96
2022-12-15T13:28:36.574Z,-4.26
2022-12-15T13:31:21.744Z,-4.67
2022-12-15T13:33:56.234Z,-4.54
2022-12-15T13:36:38.309Z,-4.26
2022-12-15T13:39:27.543Z,-4.46
2022-12-15T13:44:57.429Z,-4.78
2022-12-15T13:47:29.076Z,-4.50
2022-12-15T13:55:53.488Z,-4.30
2022-12-15T13:58:21.933Z,-4.38
2022-12-15T14:00:53.155Z,-4.13
2022-12-15T14:03:20.057Z,-4.19
2022-12-15T14:05:54.533Z,-3.82
2022-12-15T14:08:23.204Z,-4.07
2022-12-15T14:10:53.738Z,-4.18
2022-12-15T14:13:23.196Z,-3.99
2022-12-15T14:16:03.613Z,-4.39
2022-12-15T14:18:36.080Z,-4.27
2022-12-15T14:21:06.668Z,-4.07
2022-12-15T14:23:52.437Z,-4.60
2022-12-15T14:26:31.046Z,-4.37
2022-12-15T14:29:03.067Z,-4.49
2022-12-15T14:31:31.028Z,-4.72
2022-12-15T14:34:11.807Z,-4.68
2022-12-15T14:36:41.933Z,-4.67
2022-12-15T14:39:21.694Z,-4.76
2022-12-15T14:41:51.530Z,-4.25
2022-12-15T14:44:39.329Z,-4.31
2022-12-15T14:47:16.886Z,-4.42
2022-12-15T14:49:45.837Z,-4.21
2022-12-15T14:52:41.938Z,-4.42
2022-12-15T14:55:32.804Z,-4.41
2022-12-15T14:58:00.112Z,-4.38
2022-12-15T15:00:48.928Z,-4.28
2022-12-15T15:03:05.022Z,-4.60
2022-12-15T15:03:13.256Z,-4.30
2022-12-15T15:05:58.504Z,-4.45
2022-12-15T15:08:30.141Z,-4.41
2022-12-15T15:11:01.576Z,-4.42
2022-12-15T15:13:40.825Z,-4.43
2022-12-15T15:16:15.735Z,-4.24
2022-12-15T15:18:43.900Z,-4.49
2022-12-15T15:21:18.926Z,-4.21
2022-12-15T15:24:20.227Z,-4.27
2022-12-15T15:26:46.945Z,-4.26
2022-12-15T15:29:49.124Z,-4.41
2022-12-15T15:32:21.947Z,-3.94
2022-12-15T15:34:49.236Z,-3.98
2022-12-15T15:37:18.660Z,-4.08
2022-12-15T15:39:47.654Z,-3.95
2022-12-15T15:42:14.424Z,-4.12
2022-12-15T15:44:41.225Z,-4.51
2022-12-15T15:47:25.465Z,-4.24
2022-12-15T15:49:58.451Z,-4.43
2022-12-15T15:52:25.587Z,-4.46
2022-12-15T15:54:53.425Z,-4.91
2022-12-15T16:01:04.761Z,-5.13
2022-12-15T16:03:35.460Z,-4.71
2022-12-15T16:06:06.876Z,-4.55
2022-12-15T16:08:37.296Z,-4.66
2022-12-15T16:11:04.085Z,-4.71
2022-12-15T16:13:30.784Z,-4.69
2022-12-15T16:15:57.545Z,-4.65
2022-12-15T16:18:24.285Z,-4.91
2022-12-15T16:20:52.545Z,-5.09
2022-12-15T16:23:29.155Z,-4.62
2022-12-15T16:25:58.679Z,-4.54
2022-12-15T16:28:28.445Z,-4.41
2022-12-15T16:30:56.309Z,-4.46
2022-12-15T16:33:23.095Z,-5.07
2022-12-15T16:35:50.473Z,-4.65
2022-12-15T16:38:24.331Z,-4.61
2022-12-15T16:40:52.142Z,-4.68
2022-12-15T16:43:23.781Z,-4.92
2022-12-15T16:45:52.803Z,-4.74
2022-12-15T16:48:20.839Z,-5.66
2022-12-15T16:50:52.488Z,-4.76
2022-12-15T16:53:23.475Z,-4.86
2022-12-15T16:55:54.985Z,-4.77
2022-12-15T16:58:22.628Z,-4.81
2022-12-15T17:00:50.371Z,-4.85
2022-12-15T17:03:19.649Z,-4.85
2022-12-15T17:05:50.635Z,-4.93
2022-12-15T17:08:38.416Z,-5.08
2022-12-15T17:11:05.266Z,-4.93
2022-12-15T17:13:45.312Z,-5.06
2022-12-15T17:16:14.692Z,-4.85
2022-12-15T17:18:42.957Z,-4.93
2022-12-15T17:21:16.750Z,-4.84
2022-12-15T17:23:45.222Z,-4.85
2022-12-15T17:26:27.654Z,-4.89
2022-12-15T17:28:58.305Z,-4.92
2022-12-15T17:31:30.205Z,-4.88
2022-12-15T17:34:02.598Z,-4.84
2022-12-15T17:36:29.545Z,-4.78
2022-12-15T17:38:59.528Z,-4.67
2022-12-15T17:41:59.209Z,-4.66
2022-12-15T17:44:38.824Z,-4.71
2022-12-15T17:47:08.718Z,-4.71
2022-12-15T17:49:38.241Z,-4.74
2022-12-15T17:52:29.298Z,-4.73
2022-12-15T17:54:56.941Z,-4.69
2022-12-15T17:57:23.638Z,-4.64
2022-12-15T17:59:50.769Z,-4.64
2022-12-15T18:02:17.637Z,-5.16
2022-12-15T18:04:45.110Z,-4.81
2022-12-15T18:07:21.647Z,-4.79
2022-12-15T18:09:50.318Z,-4.67
2022-12-15T18:12:22.636Z,-4.62
2022-12-15T18:14:49.817Z,-4.73
2022-12-15T18:17:16.674Z,-4.94
2022-12-15T18:19:46.955Z,-4.85
2022-12-15T18:22:22.916Z,-5.41
2022-12-15T18:24:53.279Z,-5.27
2022-12-15T18:27:25.932Z,-5.52
2022-12-15T18:29:53.423Z,-5.37
2022-12-15T18:32:22.702Z,-5.29
2022-12-15T18:34:49.679Z,-4.71
2022-12-15T18:37:18.388Z,-5.27
2022-12-15T18:39:46.241Z,-5.30
2022-12-15T18:42:17.229Z,-5.45
2022-12-15T18:44:48.378Z,-4.58
2022-12-15T18:47:20.907Z,-5.28
2022-12-15T18:49:47.991Z,-5.32
2022-12-15T18:52:31.543Z,-5.17
2022-12-15T18:55:02.098Z,-4.64
2022-12-15T18:57:32.113Z,-5.26
2022-12-15T19:00:18.596Z,-4.75
2022-12-15T19:02:46.104Z,-5.52
2022-12-15T19:05:29.157Z,-5.29
2022-12-15T19:08:11.117Z,-6.09
2022-12-15T19:10:45.950Z,-5.41
2022-12-15T19:13:18.449Z,-4.76
2022-12-15T19:15:46.225Z,-5.03
2022-12-15T19:18:37.333Z,-4.79
2022-12-15T19:21:43.642Z,-5.02
2022-12-15T19:24:42.772Z,-4.97
2022-12-15T19:27:12.491Z,-4.91
2022-12-15T19:29:41.519Z,-4.79
2022-12-15T19:32:11.910Z,-4.40
2022-12-15T19:34:39.057Z,-4.56
2022-12-15T19:37:12.127Z,-5.27
2022-12-15T19:39:39.040Z,-4.61
2022-12-15T19:42:14.645Z,-4.92
2022-12-15T19:44:41.692Z,-5.06
2022-12-15T19:47:13.963Z,-4.47
2022-12-15T19:49:42.362Z,-5.42
2022-12-15T19:52:15.018Z,-5.13
2022-12-15T19:54:43.920Z,-5.44
2022-12-15T19:57:15.428Z,-5.54
2022-12-15T19:59:42.449Z,-5.65
2022-12-15T20:02:20.509Z,-5.82
2022-12-15T20:04:48.642Z,-5.14
2022-12-15T20:07:25.918Z,-4.74
2022-12-15T20:09:52.967Z,-5.75
2022-12-15T20:12:20.409Z,-5.41
2022-12-15T20:14:49.627Z,-5.22
2022-12-15T20:17:16.694Z,-5.66
2022-12-15T20:19:43.569Z,-5.04
2022-12-15T20:22:16.546Z,-4.48
2022-12-15T20:24:52.090Z,-4.99
2022-12-15T20:27:19.727Z,-5.18
2022-12-15T20:29:46.585Z,-5.10
2022-12-15T20:32:16.508Z,-5.35
2022-12-15T20:34:43.581Z,-4.68
2022-12-15T20:37:27.646Z,-5.78
2022-12-15T20:39:57.704Z,-4.44
2022-12-15T20:42:25.223Z,-5.39
2022-12-15T20:44:52.235Z,-5.81
2022-12-15T20:47:24.855Z,-4.65
2022-12-15T20:49:53.985Z,-4.77
2022-12-15T20:52:26.595Z,-4.48
2022-12-15T20:54:57.486Z,-5.07
2022-12-15T20:57:24.549Z,-4.62
2022-12-15T20:59:51.455Z,-5.41
2022-12-15T21:02:24.213Z,-5.60
2022-12-15T21:04:51.628Z,-5.03
2022-12-15T21:07:18.987Z,-5.06
2022-12-15T21:09:45.877Z,-4.54
2022-12-15T21:12:27.612Z,-5.35
2022-12-15T21:14:55.851Z,-4.39
2022-12-15T21:17:26.046Z,-5.20
2022-12-15T21:19:53.234Z,-4.88
2022-12-15T21:22:27.344Z,-5.29
2022-12-15T21:24:57.531Z,-5.20
2022-12-15T21:27:25.139Z,-5.37
2022-12-15T21:29:53.061Z,-4.94
2022-12-15T21:32:20.472Z,-5.12
2022-12-15T21:34:47.114Z,-4.82
2022-12-15T21:37:19.989Z,-4.26
2022-12-15T21:39:46.775Z,-4.54
2022-12-15T21:42:16.729Z,-4.28
2022-12-15T21:44:43.450Z,-4.30
2022-12-15T21:47:50.210Z,-4.31
2022-12-15T21:50:19.491Z,-4.26
2022-12-15T21:52:46.902Z,-4.35
2022-12-15T21:55:18.347Z,-4.73
2022-12-15T21:57:45.318Z,-4.31
2022-12-15T22:00:14.620Z,-4.33
2022-12-15T22:02:41.808Z,-4.22
2022-12-15T22:05:32.621Z,-4.21
2022-12-15T22:08:11.731Z,-4.18
2022-12-15T22:10:38.610Z,-4.23
2022-12-15T22:13:05.720Z,-4.18
2022-12-15T22:15:32.840Z,-4.45
2022-12-15T22:17:59.468Z,-4.62
2022-12-15T22:20:26.128Z,-4.70
2022-12-15T22:22:52.820Z,-4.33
2022-12-15T22:25:25.019Z,-4.20
2022-12-15T22:27:52.699Z,-4.26
2022-12-15T22:30:25.180Z,-4.31
2022-12-15T22:32:52.541Z,-4.14
2022-12-15T22:35:23.203Z,-4.30
2022-12-15T22:37:53.554Z,-4.19
2022-12-15T22:40:21.654Z,-4.20
2022-12-15T22:42:58.089Z,-4.49
2022-12-15T22:45:24.931Z,-4.15
2022-12-15T22:47:55.070Z,-4.20
2022-12-15T22:50:26.663Z,-4.14
2022-12-15T22:52:55.140Z,-4.26
2022-12-15T22:55:23.084Z,-4.14
2022-12-15T22:58:12.450Z,-4.37
2022-12-15T23:00:39.131Z,-4.19
2022-12-15T23:03:10.318Z,-4.66
2022-12-15T23:05:41.978Z,-4.17
2022-12-15T23:08:09.268Z,-4.18
2022-12-15T23:10:54.878Z,-4.40
2022-12-15T23:13:21.679Z,-4.40
2022-12-15T23:16:08.716Z,-4.25
2022-12-15T23:18:35.908Z,-4.22
2022-12-15T23:21:02.696Z,-4.28
2022-12-15T23:23:31.361Z,-4.27
2022-12-15T23:25:58.620Z,-4.26
2022-12-15T23:28:25.829Z,-4.28
2022-12-15T23:30:54.196Z,-4.26
2022-12-15T23:33:22.440Z,-4.32
2022-12-15T23:35:49.151Z,-4.53
2022-12-15T23:38:15.974Z,-4.27
2022-12-15T23:40:51.105Z,-4.33
2022-12-15T23:43:20.179Z,-4.36
2022-12-15T23:45:54.958Z,-4.33
2022-12-15T23:48:21.569Z,-4.31
2022-12-15T23:50:48.390Z,-4.50
2022-12-15T23:53:15.160Z,-4.26
2022-12-15T23:55:41.809Z,-4.30
2022-12-15T23:58:08.479Z,-4.22
